Akra, North Dakota
Current Conditions -  °F | °C
As of 4:15 AM on Wednesday 22 Oct 2014 (Local Time) from K2C8 Reporting Station
Clear Clear  
Wind Chill: 55°   Ceiling: Unl
Heat Index: 55°   Visibility: 10mi
Dew Point: 41°   Wind: 20mph
Humidity: 58%   Direction: 170°S
Pressure: 29.75"   Gusts: 29mph
Location:  48.8218°N, 97.697°W
Report Text: K2C8 220915Z AUTO 17017G25KT 10SM CLR 13/05 A2975 RMK AO2
Loading
Personal Weather Stations






























Interactive Weather Map
Tropical Storm Tracking
New forecast layout! Learn more

10-Day Weather Forecast

Advertisements
Track Severe Weather on mobile